Roald Amundsen — DARG — position and weather

sailwx.info

Track history (hours):
 
Tides and Currents Weather Stations Pressure Air Temp Water Temp Dewpoint Dewpoint Depression Visibility Wind Speed Wind Dir Waves Ship Positions

Roald Amundsen (Germany)

Built as a deep sea lugger in 1952. Converted and rigged as a traditional brig in 1992.

Ship's website: http://www.sailtraining.de/

Last reported at 2018-Apr-19 09:45 UTC. Time now 2018-Apr-20 06:35 UTC.
Position N 53°48' E 007°09'.

Length 50 m; beam 7.4 m; draft 4.5 m.

Type: Sailing vessel. MMSI: 211215170.

Date/timePositionNaut miles runAvg speedWind from/ knotsBaromVisibWave heightAir tempDewpointWater temp
2018-Apr-19 09:45N 53°48' E 007°09'1 3.9
2018-Apr-19 09:30N 53°48' E 007°08'2 3.3
2018-Apr-19 08:59N 53°47' E 007°05'2 3.4
2018-Apr-19 08:30N 53°47' E 007°03'2 3.6
2018-Apr-19 07:56N 53°46' E 006°59'23 1.0
2018-Apr-18 08:35N 53°42' E 006°22'0 6.1
2018-Apr-18 08:30N 53°42' E 006°21'3 5.9
2018-Apr-18 07:56N 53°41' E 006°15'5 6.1
2018-Apr-18 07:08N 53°39' E 006°08'4 5.0
2018-Apr-18 06:19N 53°38' E 006°01'7 4.1
2018-Apr-18 04:36N 53°36' E 005°50'1 3.8
2018-Apr-18 04:19N 53°35' E 005°48'5 3.5
2018-Apr-18 02:59N 53°34' E 005°41'2 3.3
2018-Apr-18 02:20N 53°33' E 005°37'1 3.2
2018-Apr-18 02:00N 53°33' E 005°35'2 3.2
2018-Apr-18 01:30N 53°33' E 005°33'1 2.8
2018-Apr-18 01:00N 53°32' E 005°31'2 3.1
2018-Apr-18 00:30N 53°32' E 005°28'2 3.1
2018-Apr-18 00:00N 53°31' E 005°26'2 3.5
2018-Apr-17 23:30N 53°31' E 005°23'2 3.7
2018-Apr-17 23:00N 53°30' E 005°20'2 4.0
2018-Apr-17 22:30N 53°29' E 005°17'2 4.4
2018-Apr-17 22:00N 53°28' E 005°14'2 4.5
2018-Apr-17 21:30N 53°27' E 005°10'2 4.9
2018-Apr-17 21:00N 53°26' E 005°07'2 4.5
2018-Apr-17 20:30N 53°25' E 005°03'2 4.6
2018-Apr-17 20:00N 53°23' E 005°01'2 4.7
2018-Apr-17 19:30N 53°22' E 004°58'2 4.3
2018-Apr-17 19:00N 53°20' E 004°55'7 5.8
2018-Apr-17 17:50N 53°16' E 004°47'4 6.1
2018-Apr-17 17:11N 53°12' E 004°43'1 6.3
2018-Apr-17 17:00N 53°11' E 004°42'3 6.8
2018-Apr-17 16:30N 53°08' E 004°40'3 6.9
2018-Apr-17 16:00N 53°05' E 004°37'3 6.2
2018-Apr-17 15:30N 53°03' E 004°34'14 3.7
2018-Apr-17 11:50N 52°51' E 004°24'2 3.4
2018-Apr-17 11:20N 52°49' E 004°22'3 3.7
2018-Apr-17 10:30N 52°47' E 004°19'2 3.3
2018-Apr-17 09:57N 52°46' E 004°17'2 3.4
2018-Apr-17 09:30N 52°45' E 004°15'2 3.7
2018-Apr-17 08:59N 52°43' E 004°13'2 4.6
2018-Apr-17 08:30N 52°42' E 004°10'3 5.6
2018-Apr-17 08:00N 52°40' E 004°07'3 6.0
2018-Apr-17 07:30N 52°38' E 004°03'3 6.7
2018-Apr-17 07:00N 52°36' E 003°59'4 7.0
2018-Apr-17 06:26N 52°33' E 003°53'3 7.5
2018-Apr-17 06:00N 52°32' E 003°49'4 7.4
2018-Apr-17 05:30N 52°30' E 003°43'4 7.3
2018-Apr-17 04:58N 52°29' E 003°37'3 6.2
2018-Apr-17 04:30N 52°27' E 003°33'4 6.4
2018-Apr-17 03:55N 52°26' E 003°28'3 6.2
2018-Apr-17 03:29N 52°25' E 003°24'3 6.8
2018-Apr-17 03:00N 52°23' E 003°19'4 6.7
2018-Apr-17 02:28N 52°20' E 003°15'27 3.3
2018-Apr-16 18:22N 52°03' E 002°41'2 5.0
2018-Apr-16 18:00N 52°02' E 002°39'3 5.8
2018-Apr-16 17:31N 52°00' E 002°36'3 6.3
2018-Apr-16 17:00N 51°58' E 002°32'3 6.4
2018-Apr-16 16:30N 51°55' E 002°28'3 6.6
2018-Apr-16 16:00N 51°53' E 002°25'3 6.2
2018-Apr-16 15:30N 51°51' E 002°22'3 5.7
2018-Apr-16 15:00N 51°48' E 002°19'3 6.2
2018-Apr-16 14:30N 51°46' E 002°16'3 6.1
2018-Apr-16 14:00N 51°44' E 002°13'3 6.0
2018-Apr-16 13:30N 51°41' E 002°10'3 6.1
2018-Apr-16 13:00N 51°39' E 002°06'3 5.7
2018-Apr-16 12:30N 51°37' E 002°03'3 5.9
2018-Apr-16 12:00N 51°35' E 002°00'3 6.0
2018-Apr-16 11:30N 51°32' E 001°57'3 5.5
2018-Apr-16 11:00N 51°30' E 001°54'2 4.8
2018-Apr-16 10:30N 51°28' E 001°52'2 3.8
2018-Apr-16 10:00N 51°27' E 001°50'2 3.2
2018-Apr-16 09:30N 51°25' E 001°49'1 2.4
2018-Apr-16 09:01N 51°24' E 001°48'1 2.6
2018-Apr-16 08:30N 51°24' E 001°46'1 1.8
2018-Apr-16 08:00N 51°23' E 001°45'1 2.5
2018-Apr-16 07:30N 51°22' E 001°45'1 2.7
2018-Apr-16 07:00N 51°21' E 001°44'2 3.2
2018-Apr-16 06:30N 51°19' E 001°43'2 3.6
2018-Apr-16 06:00N 51°17' E 001°42'2 4.1
2018-Apr-16 05:30N 51°15' E 001°41'2 4.0
2018-Apr-16 05:00N 51°13' E 001°40'2 4.6
2018-Apr-16 04:30N 51°12' E 001°37'2 5.0
2018-Apr-16 04:00N 51°10' E 001°34'2 4.7
2018-Apr-16 03:30N 51°09' E 001°32'2 4.6
2018-Apr-16 03:00N 51°07' E 001°29'3 6.0
2018-Apr-16 02:30N 51°05' E 001°25'3 6.4
2018-Apr-16 01:58N 51°03' E 001°21'16 5.8
2018-Apr-15 23:08N 50°54' E 000°59'1 6.2
2018-Apr-15 22:58N 50°54' E 000°58'3 5.5
2018-Apr-15 22:30N 50°52' E 000°54'2 4.5
2018-Apr-15 21:59N 50°51' E 000°51'2 4.8
2018-Apr-15 21:30N 50°50' E 000°48'3 5.2
2018-Apr-15 21:00N 50°49' E 000°44'3 5.1
2018-Apr-15 20:30N 50°47' E 000°41'2 4.5
2018-Apr-15 20:00N 50°46' E 000°38'2 4.3
2018-Apr-15 19:30N 50°45' E 000°35'2 4.1
2018-Apr-15 19:00N 50°44' E 000°33'2 3.5
2018-Apr-15 18:30N 50°43' E 000°30'2 3.7
2018-Apr-15 18:00N 50°41' E 000°28'2 4.3
2018-Apr-15 17:30N 50°41' E 000°25'2 4.0
2018-Apr-15 17:00N 50°40' E 000°22'2 3.2
2018-Apr-15 16:30N 50°40' E 000°19'1 2.9
2018-Apr-15 16:00N 50°40' E 000°17'1 2.9
2018-Apr-15 15:30N 50°40' E 000°15'2 3.4
2018-Apr-15 15:00N 50°40' E 000°12'1 2.7
2018-Apr-15 14:30N 50°40' E 000°10'1 1.7
2018-Apr-15 14:00N 50°40' E 000°09'1 1.0
2018-Apr-15 13:30N 50°39' E 000°09'1 1.6
2018-Apr-15 13:00N 50°39' E 000°07'1 2.4
2018-Apr-15 12:30N 50°39' E 000°06'1 2.8
2018-Apr-15 12:00N 50°38' E 000°04'2 3.4
2018-Apr-15 11:30N 50°38' E 000°01'2 4.0
2018-Apr-15 11:00N 50°38' W 000°02'2 4.3
2018-Apr-15 10:30N 50°38' W 000°06'2 4.4
2018-Apr-15 10:00N 50°38' W 000°09'2 4.6
2018-Apr-15 09:30N 50°38' W 000°13'2 4.6
2018-Apr-15 09:00N 50°38' W 000°16'2 4.7
2018-Apr-15 08:30N 50°38' W 000°20'2 3.6
2018-Apr-15 08:00N 50°38' W 000°23'2 3.8
2018-Apr-15 07:30N 50°39' W 000°25'2 4.6
2018-Apr-15 07:00N 50°39' W 000°29'3 5.3
2018-Apr-15 06:30N 50°39' W 000°33'3 5.2
2018-Apr-15 06:00N 50°38' W 000°37'2 5.0
2018-Apr-15 05:30N 50°37' W 000°40'2 4.6
2018-Apr-15 05:00N 50°36' W 000°43'2 4.0
2018-Apr-15 04:30N 50°35' W 000°46'5 1.4
2018-Apr-15 01:07N 50°30' W 000°46'0 1.4
2018-Apr-15 01:00N 50°30' W 000°45'3 1.7
2018-Apr-14 23:14N 50°30' W 000°41'0 1.8
2018-Apr-14 23:00N 50°30' W 000°40'1 2.0
2018-Apr-14 22:30N 50°31' W 000°40'1 2.0
2018-Apr-14 22:00N 50°32' W 000°40'1 2.4
2018-Apr-14 21:30N 50°33' W 000°41'1 2.7
2018-Apr-14 21:00N 50°34' W 000°41'1 2.6
2018-Apr-14 20:28N 50°35' W 000°43'1 3.2
2018-Apr-14 20:00N 50°36' W 000°45'2 3.4
2018-Apr-14 19:30N 50°37' W 000°47'2 3.4
2018-Apr-14 19:00N 50°38' W 000°49'2 4.7
2018-Apr-14 18:30N 50°40' W 000°51'2 4.7
2018-Apr-14 18:00N 50°42' W 000°54'2 4.4
2018-Apr-14 17:30N 50°42' W 000°57'2 4.9
2018-Apr-14 17:00N 50°43' W 001°01'3 6.7
2018-Apr-14 16:30N 50°45' W 001°05'2 4.4
2018-Apr-14 15:58N 50°48' W 001°07'0 0.0
2018-Apr-14 15:28N 50°48' W 001°07'0 0.0
2018-Apr-14 14:58N 50°48' W 001°07'0 0.0
2018-Apr-14 14:28N 50°48' W 001°07'0 0.0
2018-Apr-14 13:58N 50°48' W 001°07'0 0.0
2018-Apr-14 13:28N 50°48' W 001°07'0 0.0
2018-Apr-14 12:58N 50°48' W 001°07'0 0.0
2018-Apr-14 12:28N 50°48' W 001°07'0 0.0
2018-Apr-14 11:58N 50°48' W 001°07'0 0.0
2018-Apr-14 11:28N 50°48' W 001°07'0 0.0
2018-Apr-14 10:58N 50°48' W 001°07'0 0.0
2018-Apr-14 10:28N 50°48' W 001°07'0 0.0
2018-Apr-14 09:58N 50°48' W 001°07'0 0.0
2018-Apr-14 09:28N 50°48' W 001°07'0 0.0
2018-Apr-14 08:58N 50°48' W 001°07'0 0.0
2018-Apr-14 08:28N 50°48' W 001°07'0 0.0
2018-Apr-14 07:58N 50°48' W 001°07'0 0.0
2018-Apr-14 07:28N 50°48' W 001°07'0 0.0
2018-Apr-14 06:58N 50°48' W 001°07'0 0.0
2018-Apr-14 06:28N 50°48' W 001°07'0 0.0
2018-Apr-14 05:58N 50°48' W 001°07'0 0.0
2018-Apr-14 05:28N 50°48' W 001°07'0 0.0
2018-Apr-14 04:58N 50°48' W 001°07'0 0.0
2018-Apr-14 04:28N 50°48' W 001°07'0 0.0
2018-Apr-14 03:58N 50°48' W 001°07'0 0.0
2018-Apr-14 03:28N 50°48' W 001°07'0 0.0
2018-Apr-14 02:58N 50°48' W 001°07'0 0.0
2018-Apr-14 02:28N 50°48' W 001°07'0 0.0
2018-Apr-14 01:58N 50°48' W 001°07'0 0.0
2018-Apr-14 01:28N 50°48' W 001°07'0 0.0
2018-Apr-14 00:58N 50°48' W 001°07'0 0.0
2018-Apr-14 00:28N 50°48' W 001°07'0 0.0
2018-Apr-13 23:58N 50°48' W 001°07'0 0.0
2018-Apr-13 23:28N 50°48' W 001°07'0 0.0
2018-Apr-13 22:58N 50°48' W 001°07'0 0.0
2018-Apr-13 22:28N 50°48' W 001°07'0 0.0
2018-Apr-13 21:58N 50°48' W 001°07'0 0.0
2018-Apr-13 21:28N 50°48' W 001°07'0 0.0
2018-Apr-13 20:58N 50°48' W 001°07'0 0.0
2018-Apr-13 20:28N 50°48' W 001°07'0 0.0
2018-Apr-13 19:58N 50°48' W 001°07'0 0.0
2018-Apr-13 19:28N 50°48' W 001°07'0 0.0
2018-Apr-13 18:58N 50°48' W 001°07'0 0.0
2018-Apr-13 18:28N 50°48' W 001°07'0 0.0
2018-Apr-13 17:58N 50°48' W 001°07'0 0.0
2018-Apr-13 17:28N 50°48' W 001°07'0 0.0
2018-Apr-13 16:58N 50°48' W 001°07'0 0.0
2018-Apr-13 16:28N 50°48' W 001°07'0 0.8
2018-Apr-13 16:00N 50°48' W 001°07'1 2.6
2018-Apr-13 15:30N 50°47' W 001°06'2 3.7
2018-Apr-13 15:00N 50°46' W 001°08'1 1.7
2018-Apr-13 14:30N 50°46' W 001°10'2 3.9
2018-Apr-13 14:00N 50°46' W 001°13'2 3.0
2018-Apr-13 13:30N 50°47' W 001°15'2 4.6
2018-Apr-13 13:01N 50°46' W 001°18'2 4.6
2018-Apr-13 12:30N 50°46' W 001°22'4 4.3
2018-Apr-13 11:30N 50°44' W 001°28'2 3.7
2018-Apr-13 10:59N 50°43' W 001°31'4 2.5
2018-Apr-13 09:33N 50°41' W 001°35'0 2.6
2018-Apr-13 09:21N 50°40' W 001°36'2 3.6
2018-Apr-13 08:53N 50°39' W 001°38'2 4.3
2018-Apr-13 08:30N 50°38' W 001°40'3 6.7
2018-Apr-13 08:00N 50°37' W 001°45'4 7.8
2018-Apr-13 07:30N 50°35' W 001°50'4 8.3
2018-Apr-13 07:00N 50°33' W 001°55'5 8.2
2018-Apr-13 06:26N 50°30' W 002°01'2 4.4
2018-Apr-13 05:59N 50°29' W 002°04'1 0.1
2018-Apr-12 23:07N 50°30' W 002°04'0 1.5
2018-Apr-12 23:00N 50°30' W 002°03'0 0.5
2018-Apr-12 22:16N 50°30' W 002°03'0 0.4
2018-Apr-12 22:00N 50°30' W 002°03'1 1.0
2018-Apr-12 20:53N 50°30' W 002°04'5 2.7
2018-Apr-12 19:00N 50°32' W 002°12'2 4.0
2018-Apr-12 18:30N 50°33' W 002°15'2 4.0
2018-Apr-12 18:01N 50°34' W 002°18'1 3.0
2018-Apr-12 17:30N 50°35' W 002°20'2 2.8
2018-Apr-12 16:58N 50°35' W 002°22'1 2.7
2018-Apr-12 16:30N 50°36' W 002°24'1 2.8
2018-Apr-12 16:00N 50°37' W 002°26'1 0.0
2018-Apr-10 13:09N 50°36' W 002°25'1 6.5
2018-Apr-10 13:00N 50°35' W 002°24'3 5.7
2018-Apr-10 12:26N 50°32' W 002°24'2 5.8
2018-Apr-10 12:00N 50°30' W 002°26'2 3.4
2018-Apr-10 11:30N 50°29' W 002°28'1 2.6
2018-Apr-10 11:00N 50°29' W 002°30'4 5.8
2018-Apr-10 10:19N 50°33' W 002°28'1 2.5
2018-Apr-10 09:59N 50°34' W 002°27'0 0.0
2018-Apr-10 09:29N 50°34' W 002°27'0 0.0
2018-Apr-10 08:59N 50°34' W 002°27'0 0.0
2018-Apr-10 08:29N 50°34' W 002°27'0 0.0
2018-Apr-10 07:59N 50°34' W 002°27'0 0.0
2018-Apr-10 07:29N 50°34' W 002°27'0 0.0
2018-Apr-10 06:59N 50°34' W 002°27'0 0.0
2018-Apr-10 06:29N 50°34' W 002°27'0 0.0
2018-Apr-10 05:59N 50°34' W 002°27'0 0.0
2018-Apr-10 05:29N 50°34' W 002°27'0 0.0
2018-Apr-10 04:59N 50°34' W 002°27'0 0.0
2018-Apr-10 04:29N 50°34' W 002°27'0 0.0
2018-Apr-10 03:59N 50°34' W 002°27'0 0.0
2018-Apr-10 03:23N 50°34' W 002°27'0 0.0
2018-Apr-10 02:59N 50°34' W 002°27'0 0.0
2018-Apr-10 02:29N 50°34' W 002°27'0 0.0
2018-Apr-10 01:59N 50°34' W 002°27'0 0.0
2018-Apr-10 01:29N 50°34' W 002°27'0 0.0
2018-Apr-10 00:59N 50°34' W 002°27'0 0.0
2018-Apr-10 00:29N 50°34' W 002°27'0 0.0
2018-Apr-09 23:59N 50°34' W 002°27'0 0.0
2018-Apr-09 23:29N 50°34' W 002°27'0 0.0
2018-Apr-09 22:59N 50°34' W 002°27'0 0.0
2018-Apr-09 22:29N 50°34' W 002°27'0 0.1
2018-Apr-09 21:59N 50°34' W 002°27'1 1.4
2018-Apr-09 21:30N 50°34' W 002°28'3 5.2
2018-Apr-09 21:00N 50°32' W 002°32'3 6.7
2018-Apr-09 20:30N 50°29' W 002°34'3 5.9
2018-Apr-09 20:00N 50°26' W 002°36'3 5.6
2018-Apr-09 19:30N 50°24' W 002°38'2 4.4
2018-Apr-09 19:00N 50°22' W 002°39'1 2.6
2018-Apr-09 18:30N 50°21' W 002°40'1 0.9
2018-Apr-09 17:50N 50°21' W 002°39'0 0.7
2018-Apr-09 17:30N 50°20' W 002°39'2 4.6
2018-Apr-09 17:00N 50°18' W 002°41'0 0.9
2018-Apr-09 16:30N 50°19' W 002°41'1 2.0
2018-Apr-09 16:00N 50°18' W 002°42'3 5.5
2018-Apr-09 15:30N 50°16' W 002°44'0 0.8
2018-Apr-09 15:00N 50°16' W 002°45'1 2.0
2018-Apr-09 14:26N 50°15' W 002°46'1 1.5
2018-Apr-09 14:00N 50°16' W 002°46'1 1.3
2018-Apr-09 13:27N 50°15' W 002°46'2 4.0
2018-Apr-09 13:00N 50°17' W 002°47'2 4.1
2018-Apr-09 12:30N 50°19' W 002°49'2 4.1
2018-Apr-09 12:00N 50°20' W 002°51'1 1.8
2018-Apr-09 11:30N 50°19' W 002°50'1 1.5
2018-Apr-09 11:00N 50°20' W 002°51'1 1.2
2018-Apr-09 10:30N 50°19' W 002°50'1 1.2
2018-Apr-09 10:00N 50°19' W 002°50'  
Track history (hours):
 
Tides and Currents Weather Stations Pressure Air Temp Water Temp Dewpoint Dewpoint Depression Visibility Wind Speed Wind Dir Waves Ship Positions

Roald Amundsen (Germany)

Built as a deep sea lugger in 1952. Converted and rigged as a traditional brig in 1992.

Ship's website: http://www.sailtraining.de/

Last reported at 2018-Apr-19 09:45 UTC. Time now 2018-Apr-20 06:35 UTC.
Position N 53°48' E 007°09'.

Length 50 m; beam 7.4 m; draft 4.5 m.

Type: Sailing vessel. MMSI: 211215170.

Date/timePositionNaut miles runAvg speedWind from/ knotsBaromVisibWave heightAir tempDewpointWater temp
2018-Apr-19 09:45N 53°48' E 007°09'1 3.9
2018-Apr-19 09:30N 53°48' E 007°08'2 3.3
2018-Apr-19 08:59N 53°47' E 007°05'2 3.4
2018-Apr-19 08:30N 53°47' E 007°03'2 3.6
2018-Apr-19 07:56N 53°46' E 006°59'23 1.0
2018-Apr-18 08:35N 53°42' E 006°22'0 6.1
2018-Apr-18 08:30N 53°42' E 006°21'3 5.9
2018-Apr-18 07:56N 53°41' E 006°15'5 6.1
2018-Apr-18 07:08N 53°39' E 006°08'4 5.0
2018-Apr-18 06:19N 53°38' E 006°01'7 4.1
2018-Apr-18 04:36N 53°36' E 005°50'1 3.8
2018-Apr-18 04:19N 53°35' E 005°48'5 3.5
2018-Apr-18 02:59N 53°34' E 005°41'2 3.3
2018-Apr-18 02:20N 53°33' E 005°37'1 3.2
2018-Apr-18 02:00N 53°33' E 005°35'2 3.2
2018-Apr-18 01:30N 53°33' E 005°33'1 2.8
2018-Apr-18 01:00N 53°32' E 005°31'2 3.1
2018-Apr-18 00:30N 53°32' E 005°28'2 3.1
2018-Apr-18 00:00N 53°31' E 005°26'2 3.5
2018-Apr-17 23:30N 53°31' E 005°23'2 3.7
2018-Apr-17 23:00N 53°30' E 005°20'2 4.0
2018-Apr-17 22:30N 53°29' E 005°17'2 4.4
2018-Apr-17 22:00N 53°28' E 005°14'2 4.5
2018-Apr-17 21:30N 53°27' E 005°10'2 4.9
2018-Apr-17 21:00N 53°26' E 005°07'2 4.5
2018-Apr-17 20:30N 53°25' E 005°03'2 4.6
2018-Apr-17 20:00N 53°23' E 005°01'2 4.7
2018-Apr-17 19:30N 53°22' E 004°58'2 4.3
2018-Apr-17 19:00N 53°20' E 004°55'7 5.8
2018-Apr-17 17:50N 53°16' E 004°47'4 6.1
2018-Apr-17 17:11N 53°12' E 004°43'1 6.3
2018-Apr-17 17:00N 53°11' E 004°42'3 6.8
2018-Apr-17 16:30N 53°08' E 004°40'3 6.9
2018-Apr-17 16:00N 53°05' E 004°37'3 6.2
2018-Apr-17 15:30N 53°03' E 004°34'14 3.7
2018-Apr-17 11:50N 52°51' E 004°24'2 3.4
2018-Apr-17 11:20N 52°49' E 004°22'3 3.7
2018-Apr-17 10:30N 52°47' E 004°19'2 3.3
2018-Apr-17 09:57N 52°46' E 004°17'2 3.4
2018-Apr-17 09:30N 52°45' E 004°15'2 3.7
2018-Apr-17 08:59N 52°43' E 004°13'2 4.6
2018-Apr-17 08:30N 52°42' E 004°10'3 5.6
2018-Apr-17 08:00N 52°40' E 004°07'3 6.0
2018-Apr-17 07:30N 52°38' E 004°03'3 6.7
2018-Apr-17 07:00N 52°36' E 003°59'4 7.0
2018-Apr-17 06:26N 52°33' E 003°53'3 7.5
2018-Apr-17 06:00N 52°32' E 003°49'4 7.4
2018-Apr-17 05:30N 52°30' E 003°43'4 7.3
2018-Apr-17 04:58N 52°29' E 003°37'3 6.2
2018-Apr-17 04:30N 52°27' E 003°33'4 6.4
2018-Apr-17 03:55N 52°26' E 003°28'3 6.2
2018-Apr-17 03:29N 52°25' E 003°24'3 6.8
2018-Apr-17 03:00N 52°23' E 003°19'4 6.7
2018-Apr-17 02:28N 52°20' E 003°15'27 3.3
2018-Apr-16 18:22N 52°03' E 002°41'2 5.0
2018-Apr-16 18:00N 52°02' E 002°39'3 5.8
2018-Apr-16 17:31N 52°00' E 002°36'3 6.3
2018-Apr-16 17:00N 51°58' E 002°32'3 6.4
2018-Apr-16 16:30N 51°55' E 002°28'3 6.6
2018-Apr-16 16:00N 51°53' E 002°25'3 6.2
2018-Apr-16 15:30N 51°51' E 002°22'3 5.7
2018-Apr-16 15:00N 51°48' E 002°19'3 6.2
2018-Apr-16 14:30N 51°46' E 002°16'3 6.1
2018-Apr-16 14:00N 51°44' E 002°13'3 6.0
2018-Apr-16 13:30N 51°41' E 002°10'3 6.1
2018-Apr-16 13:00N 51°39' E 002°06'3 5.7
2018-Apr-16 12:30N 51°37' E 002°03'3 5.9
2018-Apr-16 12:00N 51°35' E 002°00'3 6.0
2018-Apr-16 11:30N 51°32' E 001°57'3 5.5
2018-Apr-16 11:00N 51°30' E 001°54'2 4.8
2018-Apr-16 10:30N 51°28' E 001°52'2 3.8
2018-Apr-16 10:00N 51°27' E 001°50'2 3.2
2018-Apr-16 09:30N 51°25' E 001°49'1 2.4
2018-Apr-16 09:01N 51°24' E 001°48'1 2.6
2018-Apr-16 08:30N 51°24' E 001°46'1 1.8
2018-Apr-16 08:00N 51°23' E 001°45'1 2.5
2018-Apr-16 07:30N 51°22' E 001°45'1 2.7
2018-Apr-16 07:00N 51°21' E 001°44'2 3.2
2018-Apr-16 06:30N 51°19' E 001°43'2 3.6
2018-Apr-16 06:00N 51°17' E 001°42'2 4.1
2018-Apr-16 05:30N 51°15' E 001°41'2 4.0
2018-Apr-16 05:00N 51°13' E 001°40'2 4.6
2018-Apr-16 04:30N 51°12' E 001°37'2 5.0
2018-Apr-16 04:00N 51°10' E 001°34'2 4.7
2018-Apr-16 03:30N 51°09' E 001°32'2 4.6
2018-Apr-16 03:00N 51°07' E 001°29'3 6.0
2018-Apr-16 02:30N 51°05' E 001°25'3 6.4
2018-Apr-16 01:58N 51°03' E 001°21'16 5.8
2018-Apr-15 23:08N 50°54' E 000°59'1 6.2
2018-Apr-15 22:58N 50°54' E 000°58'3 5.5
2018-Apr-15 22:30N 50°52' E 000°54'2 4.5
2018-Apr-15 21:59N 50°51' E 000°51'2 4.8
2018-Apr-15 21:30N 50°50' E 000°48'3 5.2
2018-Apr-15 21:00N 50°49' E 000°44'3 5.1
2018-Apr-15 20:30N 50°47' E 000°41'2 4.5
2018-Apr-15 20:00N 50°46' E 000°38'2 4.3
2018-Apr-15 19:30N 50°45' E 000°35'2 4.1
2018-Apr-15 19:00N 50°44' E 000°33'2 3.5
2018-Apr-15 18:30N 50°43' E 000°30'2 3.7
2018-Apr-15 18:00N 50°41' E 000°28'2 4.3
2018-Apr-15 17:30N 50°41' E 000°25'2 4.0
2018-Apr-15 17:00N 50°40' E 000°22'2 3.2
2018-Apr-15 16:30N 50°40' E 000°19'1 2.9
2018-Apr-15 16:00N 50°40' E 000°17'1 2.9
2018-Apr-15 15:30N 50°40' E 000°15'2 3.4
2018-Apr-15 15:00N 50°40' E 000°12'1 2.7
2018-Apr-15 14:30N 50°40' E 000°10'1 1.7
2018-Apr-15 14:00N 50°40' E 000°09'1 1.0
2018-Apr-15 13:30N 50°39' E 000°09'1 1.6
2018-Apr-15 13:00N 50°39' E 000°07'1 2.4
2018-Apr-15 12:30N 50°39' E 000°06'1 2.8
2018-Apr-15 12:00N 50°38' E 000°04'2 3.4
2018-Apr-15 11:30N 50°38' E 000°01'2 4.0
2018-Apr-15 11:00N 50°38' W 000°02'2 4.3
2018-Apr-15 10:30N 50°38' W 000°06'2 4.4
2018-Apr-15 10:00N 50°38' W 000°09'2 4.6
2018-Apr-15 09:30N 50°38' W 000°13'2 4.6
2018-Apr-15 09:00N 50°38' W 000°16'2 4.7
2018-Apr-15 08:30N 50°38' W 000°20'2 3.6
2018-Apr-15 08:00N 50°38' W 000°23'2 3.8
2018-Apr-15 07:30N 50°39' W 000°25'2 4.6
2018-Apr-15 07:00N 50°39' W 000°29'3 5.3
2018-Apr-15 06:30N 50°39' W 000°33'3 5.2
2018-Apr-15 06:00N 50°38' W 000°37'2 5.0
2018-Apr-15 05:30N 50°37' W 000°40'2 4.6
2018-Apr-15 05:00N 50°36' W 000°43'2 4.0
2018-Apr-15 04:30N 50°35' W 000°46'5 1.4
2018-Apr-15 01:07N 50°30' W 000°46'0 1.4
2018-Apr-15 01:00N 50°30' W 000°45'3 1.7
2018-Apr-14 23:14N 50°30' W 000°41'0 1.8
2018-Apr-14 23:00N 50°30' W 000°40'1 2.0
2018-Apr-14 22:30N 50°31' W 000°40'1 2.0
2018-Apr-14 22:00N 50°32' W 000°40'1 2.4
2018-Apr-14 21:30N 50°33' W 000°41'1 2.7
2018-Apr-14 21:00N 50°34' W 000°41'1 2.6
2018-Apr-14 20:28N 50°35' W 000°43'1 3.2
2018-Apr-14 20:00N 50°36' W 000°45'2 3.4
2018-Apr-14 19:30N 50°37' W 000°47'2 3.4
2018-Apr-14 19:00N 50°38' W 000°49'2 4.7
2018-Apr-14 18:30N 50°40' W 000°51'2 4.7
2018-Apr-14 18:00N 50°42' W 000°54'2 4.4
2018-Apr-14 17:30N 50°42' W 000°57'2 4.9
2018-Apr-14 17:00N 50°43' W 001°01'3 6.7
2018-Apr-14 16:30N 50°45' W 001°05'2 4.4
2018-Apr-14 15:58N 50°48' W 001°07'0 0.0
2018-Apr-14 15:28N 50°48' W 001°07'0 0.0
2018-Apr-14 14:58N 50°48' W 001°07'0 0.0
2018-Apr-14 14:28N 50°48' W 001°07'0 0.0
2018-Apr-14 13:58N 50°48' W 001°07'0 0.0
2018-Apr-14 13:28N 50°48' W 001°07'0 0.0
2018-Apr-14 12:58N 50°48' W 001°07'0 0.0
2018-Apr-14 12:28N 50°48' W 001°07'0 0.0
2018-Apr-14 11:58N 50°48' W 001°07'0 0.0
2018-Apr-14 11:28N 50°48' W 001°07'0 0.0
2018-Apr-14 10:58N 50°48' W 001°07'0 0.0
2018-Apr-14 10:28N 50°48' W 001°07'0 0.0
2018-Apr-14 09:58N 50°48' W 001°07'0 0.0
2018-Apr-14 09:28N 50°48' W 001°07'0 0.0
2018-Apr-14 08:58N 50°48' W 001°07'0 0.0
2018-Apr-14 08:28N 50°48' W 001°07'0 0.0
2018-Apr-14 07:58N 50°48' W 001°07'0 0.0
2018-Apr-14 07:28N 50°48' W 001°07'0 0.0
2018-Apr-14 06:58N 50°48' W 001°07'0 0.0
2018-Apr-14 06:28N 50°48' W 001°07'0 0.0
2018-Apr-14 05:58N 50°48' W 001°07'0 0.0
2018-Apr-14 05:28N 50°48' W 001°07'0 0.0
2018-Apr-14 04:58N 50°48' W 001°07'0 0.0
2018-Apr-14 04:28N 50°48' W 001°07'0 0.0
2018-Apr-14 03:58N 50°48' W 001°07'0 0.0
2018-Apr-14 03:28N 50°48' W 001°07'0 0.0
2018-Apr-14 02:58N 50°48' W 001°07'0 0.0
2018-Apr-14 02:28N 50°48' W 001°07'0 0.0
2018-Apr-14 01:58N 50°48' W 001°07'0 0.0
2018-Apr-14 01:28N 50°48' W 001°07'0 0.0
2018-Apr-14 00:58N 50°48' W 001°07'0 0.0
2018-Apr-14 00:28N 50°48' W 001°07'0 0.0
2018-Apr-13 23:58N 50°48' W 001°07'0 0.0
2018-Apr-13 23:28N 50°48' W 001°07'0 0.0
2018-Apr-13 22:58N 50°48' W 001°07'0 0.0
2018-Apr-13 22:28N 50°48' W 001°07'0 0.0
2018-Apr-13 21:58N 50°48' W 001°07'0 0.0
2018-Apr-13 21:28N 50°48' W 001°07'0 0.0
2018-Apr-13 20:58N 50°48' W 001°07'0 0.0
2018-Apr-13 20:28N 50°48' W 001°07'0 0.0
2018-Apr-13 19:58N 50°48' W 001°07'0 0.0
2018-Apr-13 19:28N 50°48' W 001°07'0 0.0
2018-Apr-13 18:58N 50°48' W 001°07'0 0.0
2018-Apr-13 18:28N 50°48' W 001°07'0 0.0
2018-Apr-13 17:58N 50°48' W 001°07'0 0.0
2018-Apr-13 17:28N 50°48' W 001°07'0 0.0
2018-Apr-13 16:58N 50°48' W 001°07'0 0.0
2018-Apr-13 16:28N 50°48' W 001°07'0 0.8
2018-Apr-13 16:00N 50°48' W 001°07'1 2.6
2018-Apr-13 15:30N 50°47' W 001°06'2 3.7
2018-Apr-13 15:00N 50°46' W 001°08'1 1.7
2018-Apr-13 14:30N 50°46' W 001°10'2 3.9
2018-Apr-13 14:00N 50°46' W 001°13'2 3.0
2018-Apr-13 13:30N 50°47' W 001°15'2 4.6
2018-Apr-13 13:01N 50°46' W 001°18'2 4.6
2018-Apr-13 12:30N 50°46' W 001°22'4 4.3
2018-Apr-13 11:30N 50°44' W 001°28'2 3.7
2018-Apr-13 10:59N 50°43' W 001°31'4 2.5
2018-Apr-13 09:33N 50°41' W 001°35'0 2.6
2018-Apr-13 09:21N 50°40' W 001°36'2 3.6
2018-Apr-13 08:53N 50°39' W 001°38'2 4.3
2018-Apr-13 08:30N 50°38' W 001°40'3 6.7
2018-Apr-13 08:00N 50°37' W 001°45'4 7.8
2018-Apr-13 07:30N 50°35' W 001°50'4 8.3
2018-Apr-13 07:00N 50°33' W 001°55'5 8.2
2018-Apr-13 06:26N 50°30' W 002°01'2 4.4
2018-Apr-13 05:59N 50°29' W 002°04'1 0.1
2018-Apr-12 23:07N 50°30' W 002°04'0 1.5
2018-Apr-12 23:00N 50°30' W 002°03'0 0.5
2018-Apr-12 22:16N 50°30' W 002°03'0 0.4
2018-Apr-12 22:00N 50°30' W 002°03'1 1.0
2018-Apr-12 20:53N 50°30' W 002°04'5 2.7
2018-Apr-12 19:00N 50°32' W 002°12'2 4.0
2018-Apr-12 18:30N 50°33' W 002°15'2 4.0
2018-Apr-12 18:01N 50°34' W 002°18'1 3.0
2018-Apr-12 17:30N 50°35' W 002°20'2 2.8
2018-Apr-12 16:58N 50°35' W 002°22'1 2.7
2018-Apr-12 16:30N 50°36' W 002°24'1 2.8
2018-Apr-12 16:00N 50°37' W 002°26'1 0.0
2018-Apr-10 13:09N 50°36' W 002°25'1 6.5
2018-Apr-10 13:00N 50°35' W 002°24'3 5.7
2018-Apr-10 12:26N 50°32' W 002°24'2 5.8
2018-Apr-10 12:00N 50°30' W 002°26'2 3.4
2018-Apr-10 11:30N 50°29' W 002°28'1 2.6
2018-Apr-10 11:00N 50°29' W 002°30'4 5.8
2018-Apr-10 10:19N 50°33' W 002°28'1 2.5
2018-Apr-10 09:59N 50°34' W 002°27'0 0.0
2018-Apr-10 09:29N 50°34' W 002°27'0 0.0
2018-Apr-10 08:59N 50°34' W 002°27'0 0.0
2018-Apr-10 08:29N 50°34' W 002°27'0 0.0
2018-Apr-10 07:59N 50°34' W 002°27'0 0.0
2018-Apr-10 07:29N 50°34' W 002°27'0 0.0
2018-Apr-10 06:59N 50°34' W 002°27'0 0.0
2018-Apr-10 06:29N 50°34' W 002°27'0 0.0
2018-Apr-10 05:59N 50°34' W 002°27'0 0.0
2018-Apr-10 05:29N 50°34' W 002°27'0 0.0
2018-Apr-10 04:59N 50°34' W 002°27'0 0.0
2018-Apr-10 04:29N 50°34' W 002°27'0 0.0
2018-Apr-10 03:59N 50°34' W 002°27'0 0.0
2018-Apr-10 03:23N 50°34' W 002°27'0 0.0
2018-Apr-10 02:59N 50°34' W 002°27'0 0.0
2018-Apr-10 02:29N 50°34' W 002°27'0 0.0
2018-Apr-10 01:59N 50°34' W 002°27'0 0.0
2018-Apr-10 01:29N 50°34' W 002°27'0 0.0
2018-Apr-10 00:59N 50°34' W 002°27'0 0.0
2018-Apr-10 00:29N 50°34' W 002°27'0 0.0
2018-Apr-09 23:59N 50°34' W 002°27'0 0.0
2018-Apr-09 23:29N 50°34' W 002°27'0 0.0
2018-Apr-09 22:59N 50°34' W 002°27'0 0.0
2018-Apr-09 22:29N 50°34' W 002°27'0 0.1
2018-Apr-09 21:59N 50°34' W 002°27'1 1.4
2018-Apr-09 21:30N 50°34' W 002°28'3 5.2
2018-Apr-09 21:00N 50°32' W 002°32'3 6.7
2018-Apr-09 20:30N 50°29' W 002°34'3 5.9
2018-Apr-09 20:00N 50°26' W 002°36'3 5.6
2018-Apr-09 19:30N 50°24' W 002°38'2 4.4
2018-Apr-09 19:00N 50°22' W 002°39'1 2.6
2018-Apr-09 18:30N 50°21' W 002°40'1 0.9
2018-Apr-09 17:50N 50°21' W 002°39'0 0.7
2018-Apr-09 17:30N 50°20' W 002°39'2 4.6
2018-Apr-09 17:00N 50°18' W 002°41'0 0.9
2018-Apr-09 16:30N 50°19' W 002°41'1 2.0
2018-Apr-09 16:00N 50°18' W 002°42'3 5.5
2018-Apr-09 15:30N 50°16' W 002°44'0 0.8
2018-Apr-09 15:00N 50°16' W 002°45'1 2.0
2018-Apr-09 14:26N 50°15' W 002°46'1 1.5
2018-Apr-09 14:00N 50°16' W 002°46'1 1.3
2018-Apr-09 13:27N 50°15' W 002°46'2 4.0
2018-Apr-09 13:00N 50°17' W 002°47'2 4.1
2018-Apr-09 12:30N 50°19' W 002°49'2 4.1
2018-Apr-09 12:00N 50°20' W 002°51'1 1.8
2018-Apr-09 11:30N 50°19' W 002°50'1 1.5
2018-Apr-09 11:00N 50°20' W 002°51'1 1.2
2018-Apr-09 10:30N 50°19' W 002°50'1 1.2
2018-Apr-09 10:00N 50°19' W 002°50'  

Dump ship's entire track history